createdAt,value
2018-09-09T00:06:53.543Z,4.1
2018-09-09T00:23:40.869Z,4.0
2018-09-09T00:40:27.982Z,4.0
2018-09-09T00:57:15.673Z,4.0
2018-09-09T01:14:01.981Z,4.0
2018-09-09T01:30:49.021Z,4.0
2018-09-09T01:47:36.081Z,4.0
2018-09-09T02:04:23.124Z,4.0
2018-09-09T02:21:09.979Z,4.0
2018-09-09T02:37:56.825Z,3.9
2018-09-09T02:54:43.743Z,3.9
2018-09-09T03:11:30.683Z,3.9
2018-09-09T03:28:17.429Z,3.9
2018-09-09T03:45:04.243Z,3.9
2018-09-09T04:01:51.048Z,3.9
2018-09-09T04:18:37.712Z,3.9
2018-09-09T04:35:24.492Z,3.9
2018-09-09T04:52:11.297Z,3.9
2018-09-09T05:08:58.052Z,3.9
2018-09-09T05:25:44.800Z,3.8
2018-09-09T05:42:31.472Z,3.8
2018-09-09T05:59:18.127Z,3.9
2018-09-09T06:16:04.810Z,3.9
2018-09-09T06:32:52.290Z,4.0
2018-09-09T06:49:38.493Z,4.1
2018-09-09T07:06:25.271Z,4.2
2018-09-09T07:23:12.684Z,4.4
2018-09-09T07:40:00.862Z,4.5
2018-09-09T07:56:47.475Z,4.5
2018-09-09T08:13:34.875Z,4.5
2018-09-09T08:30:22.249Z,4.5
2018-09-09T08:47:10.358Z,4.5
2018-09-09T09:03:57.622Z,4.6
2018-09-09T09:20:45.647Z,4.6
2018-09-09T09:37:33.587Z,4.6
2018-09-09T09:54:21.600Z,4.6
2018-09-09T10:11:09.801Z,4.6
2018-09-09T10:27:58.263Z,4.6
2018-09-09T10:44:46.575Z,4.6
2018-09-09T11:01:35.980Z,4.6
2018-09-09T11:18:24.179Z,4.6
2018-09-09T11:35:13.313Z,4.6
2018-09-09T11:52:04.435Z,4.6
2018-09-09T12:08:51.891Z,4.6
2018-09-09T12:25:41.771Z,4.6
2018-09-09T12:42:31.376Z,4.6
2018-09-09T12:59:21.347Z,4.6
2018-09-09T13:16:11.342Z,4.6
2018-09-09T13:33:01.924Z,4.6
2018-09-09T13:49:51.460Z,4.6
2018-09-09T14:06:41.601Z,4.6
2018-09-09T14:23:32.070Z,4.6
2018-09-09T14:40:21.996Z,4.6
2018-09-09T14:57:12.035Z,4.5
2018-09-09T15:14:02.074Z,4.5
2018-09-09T15:30:52.057Z,4.5
2018-09-09T15:47:42.186Z,4.5
2018-09-09T16:04:31.753Z,4.5
2018-09-09T16:21:22.046Z,4.5
2018-09-09T16:38:11.516Z,4.5
2018-09-09T16:55:01.166Z,4.5
2018-09-09T17:11:50.899Z,4.4
2018-09-09T17:28:40.572Z,4.4
2018-09-09T17:45:30.357Z,4.4
2018-09-09T18:02:20.068Z,4.4
2018-09-09T18:19:09.878Z,4.4
2018-09-09T18:35:59.739Z,4.3
2018-09-09T18:52:49.777Z,4.3
2018-09-09T19:09:39.386Z,4.3
2018-09-09T19:26:29.246Z,4.3
2018-09-09T19:43:18.535Z,4.2
2018-09-09T20:00:07.222Z,4.2
2018-09-09T20:16:55.720Z,4.2
2018-09-09T20:33:44.267Z,4.2
2018-09-09T20:50:32.574Z,4.2
2018-09-09T21:07:20.930Z,4.2
2018-09-09T21:24:10.295Z,4.2
2018-09-09T21:40:57.424Z,4.2
2018-09-09T21:57:45.720Z,4.2
2018-09-09T22:14:33.761Z,4.2
2018-09-09T22:31:22.036Z,4.1
2018-09-09T22:48:10.075Z,4.1
2018-09-09T23:04:58.193Z,4.1
2018-09-09T23:21:50.137Z,4.1
2018-09-09T23:38:34.241Z,4.1
2018-09-09T23:55:22.288Z,4.1
